Time;durP1;ratioP1;P1;durP2;ratioP2;P2;SDS_P1;SDS_P2;PMS_P1;PMS_P2;Temp;Humidity;BMP_temperature;BMP_pressure;BME280_temperature;BME280_humidity;BME280_pressure;Samples;Min_cycle;Max_cycle;Signal;HPM_P1;HPM_P2
2021/01/20 00:02:07;;;;;;;7.28;3.55;;;8.00;80.30;;;;;;4906494;29;20051;-86
2021/01/20 00:04:33;;;;;;;8.13;3.70;;;7.90;80.30;;;;;;4899856;29;20054;-86
2021/01/20 00:06:59;;;;;;;7.93;4.22;;;7.90;80.30;;;;;;4892585;29;20075;-86
2021/01/20 00:09:25;;;;;;;8.20;4.22;;;7.90;80.10;;;;;;4918507;29;20387;-86
2021/01/20 00:11:50;;;;;;;7.95;3.78;;;7.90;80.00;;;;;;4904351;29;20055;-86
2021/01/20 00:14:16;;;;;;;8.45;4.55;;;7.90;80.40;;;;;;4868518;29;20067;-87
2021/01/20 00:16:42;;;;;;;6.32;3.90;;;7.90;80.10;;;;;;4891840;29;20036;-86
2021/01/20 00:19:08;;;;;;;6.72;4.25;;;7.80;79.90;;;;;;4918324;29;20036;-87
2021/01/20 00:21:35;;;;;;;6.75;3.88;;;7.80;79.90;;;;;;4901005;29;20043;-87
2021/01/20 00:24:01;;;;;;;9.43;4.25;;;7.80;79.90;;;;;;4902541;29;20047;-87
2021/01/20 00:26:27;;;;;;;9.50;4.63;;;7.80;79.50;;;;;;4890692;29;20402;-87
2021/01/20 00:28:52;;;;;;;9.23;4.38;;;7.80;79.60;;;;;;4918093;29;20051;-88
2021/01/20 00:31:18;;;;;;;9.10;4.60;;;7.80;79.70;;;;;;4935458;29;20032;-87
2021/01/20 00:33:44;;;;;;;6.93;3.78;;;7.80;79.70;;;;;;4918531;29;20485;-87
2021/01/20 00:36:10;;;;;;;10.43;4.50;;;7.80;79.80;;;;;;4917177;29;20083;-87
2021/01/20 00:38:36;;;;;;;7.32;3.72;;;7.70;79.60;;;;;;4918291;29;20071;-87
2021/01/20 00:41:02;;;;;;;8.90;4.60;;;7.70;79.70;;;;;;4917867;29;20047;-87
2021/01/20 00:43:29;;;;;;;8.65;4.63;;;7.70;79.70;;;;;;4903810;29;20044;-87
2021/01/20 00:45:55;;;;;;;8.70;4.78;;;7.70;79.60;;;;;;4884463;29;20095;-88
2021/01/20 00:48:21;;;;;;;8.52;4.57;;;7.70;79.60;;;;;;4899349;29;20127;-88
2021/01/20 00:50:46;;;;;;;8.80;4.47;;;7.70;79.60;;;;;;4899432;29;20065;-88
2021/01/20 00:53:12;;;;;;;7.50;4.68;;;7.70;79.60;;;;;;4883447;29;20446;-87
2021/01/20 00:55:37;;;;;;;9.77;5.72;;;7.70;79.70;;;;;;4879064;29;20043;-87
2021/01/20 00:58:03;;;;;;;9.65;5.15;;;7.70;79.30;;;;;;4902349;29;20120;-87
2021/01/20 01:00:29;;;;;;;8.07;5.07;;;7.60;79.50;;;;;;4899726;29;20039;-87
2021/01/20 01:02:54;;;;;;;8.32;4.95;;;7.60;79.60;;;;;;4916901;29;20058;-87
2021/01/20 01:05:20;;;;;;;9.27;5.30;;;7.60;79.70;;;;;;4901904;29;20063;-87
2021/01/20 01:07:46;;;;;;;11.52;6.22;;;7.60;80.40;;;;;;4902087;29;20043;-86
2021/01/20 01:10:12;;;;;;;10.48;5.90;;;7.60;79.90;;;;;;4917595;29;20060;-87
2021/01/20 01:12:37;;;;;;;9.02;4.95;;;7.60;80.30;;;;;;4912760;29;20542;-87
2021/01/20 01:15:04;;;;;;;8.38;5.35;;;7.60;79.90;;;;;;4894948;29;20043;-87
2021/01/20 01:17:30;;;;;;;8.90;5.50;;;7.60;79.90;;;;;;4934828;29;20063;-86
2021/01/20 01:19:56;;;;;;;8.95;5.22;;;7.60;79.90;;;;;;4902290;29;20032;-87
2021/01/20 01:22:21;;;;;;;9.48;5.93;;;7.60;79.90;;;;;;4886399;29;20442;-87
2021/01/20 01:24:47;;;;;;;12.07;5.45;;;7.60;79.90;;;;;;4883549;29;20048;-88
2021/01/20 01:27:13;;;;;;;10.40;5.18;;;7.60;79.90;;;;;;4886791;29;20055;-87
2021/01/20 01:29:38;;;;;;;11.00;5.60;;;7.60;80.00;;;;;;4899156;29;20090;-87
2021/01/20 01:32:06;;;;;;;8.98;5.05;;;7.60;80.00;;;;;;4902337;29;20047;-86
2021/01/20 01:34:32;;;;;;;10.98;5.18;;;7.60;79.90;;;;;;4908129;29;20043;-87
2021/01/20 01:36:58;;;;;;;8.65;4.85;;;7.60;80.00;;;;;;4884374;29;20398;-85
2021/01/20 01:39:23;;;;;;;8.18;4.70;;;7.60;79.90;;;;;;4905732;29;20052;-85
2021/01/20 01:41:49;;;;;;;7.10;4.88;;;7.70;80.00;;;;;;4917015;29;20148;-85
2021/01/20 01:44:17;;;;;;;7.75;5.22;;;7.60;79.90;;;;;;4916536;29;20048;-85
2021/01/20 01:46:43;;;;;;;8.45;4.78;;;7.70;79.90;;;;;;4895526;29;20043;-85
2021/01/20 01:49:09;;;;;;;8.25;4.57;;;7.70;79.90;;;;;;4915833;29;20052;-85
2021/01/20 01:51:34;;;;;;;8.15;4.70;;;7.60;80.50;;;;;;4934090;29;20502;-85
2021/01/20 01:54:00;;;;;;;6.55;4.50;;;7.70;79.90;;;;;;4924279;29;20371;-85
2021/01/20 01:56:26;;;;;;;9.43;4.70;;;7.70;80.40;;;;;;4914792;29;20048;-85
2021/01/20 01:58:53;;;;;;;7.72;4.20;;;7.70;79.70;;;;;;4897921;29;20068;-85
2021/01/20 02:01:19;;;;;;;7.10;4.07;;;7.70;79.70;;;;;;4910481;29;20115;-85
2021/01/20 02:03:48;;;;;;;7.95;4.57;;;7.70;79.70;;;;;;4898430;29;20565;-85
2021/01/20 02:06:14;;;;;;;11.38;5.25;;;7.70;79.70;;;;;;4897711;29;20067;-85
2021/01/20 02:11:41;;;;;;;5.95;4.20;;;7.70;79.50;;;;;;4893948;29;20057;-84
2021/01/20 02:14:16;;;;;;;7.57;4.13;;;7.70;79.60;;;;;;4895652;29;20131;-85
2021/01/20 02:16:51;;;;;;;5.40;3.65;;;7.70;79.60;;;;;;4901424;29;20040;-85
2021/01/20 02:19:20;;;;;;;6.53;4.35;;;7.70;79.60;;;;;;4900841;29;20478;-85
2021/01/20 02:22:18;;;;;;;7.90;4.00;;;7.70;80.00;;;;;;4901347;29;20067;-85
2021/01/20 02:24:57;;;;;;;5.55;3.58;;;7.70;79.40;;;;;;4887071;29;20090;-85
2021/01/20 02:27:39;;;;;;;6.35;3.63;;;7.70;79.30;;;;;;4899278;29;20040;-85
2021/01/20 02:30:08;;;;;;;8.35;4.03;;;7.70;79.30;;;;;;4901165;29;20040;-85
2021/01/20 02:32:37;;;;;;;6.68;3.63;;;7.70;79.20;;;;;;4917705;29;20119;-85
2021/01/20 02:35:04;;;;;;;7.15;3.47;;;7.70;79.30;;;;;;4917680;29;20044;-85
2021/01/20 02:37:35;;;;;;;8.18;3.78;;;7.70;79.20;;;;;;4883008;29;20062;-85
2021/01/20 02:40:04;;;;;;;7.15;4.00;;;7.70;79.00;;;;;;4900490;29;20390;-85
2021/01/20 02:42:29;;;;;;;;;;;7.70;78.80;;;;;;4895715;29;20158;-85
2021/01/20 02:44:57;;;;;;;5.53;3.72;;;7.70;78.90;;;;;;4898957;29;19919;-85
2021/01/20 02:47:23;;;;;;;6.68;3.78;;;7.70;79.00;;;;;;4885823;29;20041;-85
2021/01/20 02:49:49;;;;;;;8.65;3.58;;;7.70;78.90;;;;;;4900909;29;20543;-85
2021/01/20 02:52:29;;;;;;;6.97;3.70;;;7.70;78.80;;;;;;4900529;29;20048;-85
2021/01/20 02:54:58;;;;;;;7.93;3.95;;;7.70;78.70;;;;;;4898682;29;20048;-85
2021/01/20 02:57:23;;;;;;;5.68;3.25;;;7.70;78.70;;;;;;4877493;29;20056;-85
2021/01/20 02:59:53;;;;;;;5.43;3.45;;;7.70;78.90;;;;;;4851157;29;20044;-86
2021/01/20 03:02:21;;;;;;;6.63;3.67;;;7.80;78.90;;;;;;4916280;29;20032;-87
2021/01/20 03:04:48;;;;;;;6.50;3.70;;;7.70;78.70;;;;;;4885948;29;20059;-86
2021/01/20 03:07:17;;;;;;;6.45;3.25;;;7.70;79.40;;;;;;4894362;29;20048;-86
2021/01/20 03:09:43;;;;;;;5.28;3.10;;;7.80;78.90;;;;;;4881794;29;20056;-87
2021/01/20 03:12:09;;;;;;;5.43;3.65;;;7.80;78.90;;;;;;4883026;29;20147;-87
2021/01/20 03:14:37;;;;;;;5.15;3.42;;;7.80;78.90;;;;;;4900059;29;20123;-87
2021/01/20 03:17:03;;;;;;;5.85;3.38;;;7.80;79.00;;;;;;4896664;29;20032;-86
2021/01/20 03:19:28;;;;;;;5.25;2.92;;;7.80;79.00;;;;;;4881696;29;20402;-87
2021/01/20 03:21:54;;;;;;;5.78;3.45;;;7.80;79.00;;;;;;4853621;29;20131;-87
2021/01/20 03:24:20;;;;;;;5.70;3.42;;;7.80;79.10;;;;;;4917071;29;20478;-87
2021/01/20 03:26:46;;;;;;;7.75;3.25;;;7.80;79.00;;;;;;4883304;29;20067;-86
2021/01/20 03:29:11;;;;;;;4.82;3.25;;;7.80;79.00;;;;;;4882165;29;20033;-87
2021/01/20 03:31:37;;;;;;;5.80;3.47;;;7.80;79.00;;;;;;4866072;29;20064;-86
2021/01/20 03:34:02;;;;;;;7.53;3.35;;;7.80;79.00;;;;;;4851045;29;20044;-86
2021/01/20 03:36:28;;;;;;;8.10;3.80;;;7.80;78.90;;;;;;4868066;29;20064;-87
2021/01/20 03:38:54;;;;;;;6.03;3.75;;;7.80;78.90;;;;;;4850922;29;20041;-86
2021/01/20 03:41:20;;;;;;;5.78;3.30;;;7.80;78.90;;;;;;4881285;29;20037;-86
2021/01/20 03:43:46;;;;;;;5.43;3.22;;;7.80;79.00;;;;;;4867890;29;20051;-87
2021/01/20 03:46:11;;;;;;;7.47;3.80;;;7.80;79.00;;;;;;4884241;29;20040;-86
2021/01/20 03:48:37;;;;;;;5.25;3.50;;;7.80;79.10;;;;;;4895369;29;20076;-86
2021/01/20 03:51:04;;;;;;;5.03;3.42;;;7.80;79.10;;;;;;4881346;29;20044;-86
2021/01/20 03:53:29;;;;;;;5.32;3.80;;;7.90;79.20;;;;;;4881244;29;20496;-86
2021/01/20 03:55:55;;;;;;;5.78;3.75;;;7.90;79.20;;;;;;4850695;29;20055;-86
2021/01/20 03:58:20;;;;;;;6.40;3.95;;;7.90;79.30;;;;;;4893673;29;20043;-86
2021/01/20 04:00:46;;;;;;;6.15;3.78;;;7.90;79.40;;;;;;4882717;29;20040;-86
2021/01/20 04:03:12;;;;;;;9.52;4.13;;;7.90;79.40;;;;;;4866565;29;20141;-86
2021/01/20 04:05:37;;;;;;;7.05;3.92;;;7.90;79.40;;;;;;4884065;29;20044;-86
2021/01/20 04:08:03;;;;;;;7.65;4.22;;;7.80;79.50;;;;;;4898012;29;20044;-87
2021/01/20 04:10:29;;;;;;;5.68;3.45;;;7.90;79.70;;;;;;4883852;29;20047;-86
2021/01/20 04:12:55;;;;;;;6.28;4.00;;;7.90;79.70;;;;;;4916599;29;20079;-86
2021/01/20 04:15:21;;;;;;;6.70;3.65;;;7.90;79.70;;;;;;4883740;29;20506;-86
2021/01/20 04:17:46;;;;;;;7.97;3.70;;;7.90;79.60;;;;;;4887485;29;20071;-86
2021/01/20 04:20:12;;;;;;;6.95;3.78;;;7.90;79.60;;;;;;4870028;29;20419;-86
2021/01/20 04:22:39;;;;;;;6.82;3.53;;;8.00;79.70;;;;;;4886555;29;20391;-86
2021/01/20 04:25:05;;;;;;;6.75;3.63;;;7.90;79.60;;;;;;4883853;29;20110;-85
2021/01/20 04:27:31;;;;;;;6.28;3.67;;;8.00;79.60;;;;;;4899034;29;20581;-86
2021/01/20 04:29:56;;;;;;;5.72;3.72;;;8.00;79.50;;;;;;4899931;29;20045;-86
2021/01/20 04:32:22;;;;;;;5.43;3.45;;;8.00;79.40;;;;;;4899269;29;20493;-86
2021/01/20 04:34:48;;;;;;;8.73;3.72;;;8.00;79.30;;;;;;4883717;29;20044;-86
2021/01/20 04:37:14;;;;;;;7.68;3.80;;;8.00;78.90;;;;;;4899363;29;20032;-86
2021/01/20 04:39:39;;;;;;;5.82;3.83;;;8.00;78.90;;;;;;4903192;29;20092;-86
2021/01/20 04:42:05;;;;;;;10.05;4.15;;;8.00;78.70;;;;;;4865582;29;20052;-87
2021/01/20 04:44:31;;;;;;;5.25;3.50;;;8.00;78.40;;;;;;4896922;29;20064;-87
2021/01/20 04:47:00;;;;;;;6.53;3.60;;;8.00;78.50;;;;;;4865263;29;20075;-86
2021/01/20 04:49:26;;;;;;;5.50;3.40;;;8.00;78.40;;;;;;4896969;29;20036;-86
2021/01/20 04:51:54;;;;;;;5.53;3.63;;;8.10;78.40;;;;;;4890285;29;20060;-87
2021/01/20 04:54:21;;;;;;;5.53;3.97;;;8.10;78.40;;;;;;4895978;29;20043;-86
2021/01/20 04:56:47;;;;;;;5.95;3.80;;;8.10;77.70;;;;;;4880536;29;20032;-87
2021/01/20 04:59:13;;;;;;;6.82;3.38;;;8.10;77.30;;;;;;4880452;29;20041;-87
2021/01/20 05:01:40;;;;;;;4.97;3.20;;;8.10;77.00;;;;;;4845354;29;20040;-86
2021/01/20 05:04:09;;;;;;;4.38;3.05;;;8.10;77.10;;;;;;4861756;29;20056;-86
2021/01/20 05:06:35;;;;;;;5.40;3.40;;;8.10;76.80;;;;;;4910493;29;20036;-86
2021/01/20 05:09:01;;;;;;;4.78;3.30;;;8.10;77.30;;;;;;4894720;29;20105;-87
2021/01/20 05:11:40;;;;;;;6.53;3.53;;;8.10;76.90;;;;;;4883865;29;20048;-85
2021/01/20 05:14:13;;;;;;;;;;;8.20;77.00;;;;;;4883843;29;20388;-86
2021/01/20 05:16:40;;;;;;;6.15;3.10;;;8.20;77.10;;;;;;4880003;29;19911;-86
2021/01/20 05:19:06;;;;;;;5.38;2.67;;;8.20;77.20;;;;;;4880063;29;20032;-86
2021/01/20 05:21:32;;;;;;;4.85;3.17;;;8.20;77.10;;;;;;4879855;29;20119;-87
2021/01/20 05:24:17;;;;;;;4.25;2.83;;;8.20;77.60;;;;;;4864789;29;20072;-85
2021/01/20 05:26:43;;;;;;;3.80;2.75;;;8.20;77.00;;;;;;4879829;29;20386;-86
2021/01/20 05:29:09;;;;;;;4.55;2.88;;;8.20;77.00;;;;;;4897015;29;20063;-86
2021/01/20 05:31:34;;;;;;;5.10;2.85;;;8.30;77.00;;;;;;4878845;29;20562;-86
2021/01/20 05:34:01;;;;;;;5.25;2.70;;;8.30;77.00;;;;;;4879431;29;20052;-86
2021/01/20 05:36:26;;;;;;;4.00;2.70;;;8.30;76.70;;;;;;4879654;29;20043;-86
2021/01/20 05:38:52;;;;;;;4.45;2.72;;;8.30;76.80;;;;;;4849126;29;20049;-86
2021/01/20 05:41:30;;;;;;;4.65;2.45;;;8.30;76.80;;;;;;4864519;29;20143;-86
2021/01/20 05:44:07;;;;;;;4.70;2.50;;;8.30;77.40;;;;;;4880237;29;20049;-86
2021/01/20 05:46:36;;;;;;;3.78;2.50;;;8.40;76.90;;;;;;4890816;29;20044;-86
2021/01/20 05:49:02;;;;;;;5.35;2.78;;;8.40;77.00;;;;;;4915431;29;20036;-86
2021/01/20 05:51:42;;;;;;;4.47;2.50;;;8.40;77.00;;;;;;4899830;29;20067;-86
2021/01/20 05:54:08;;;;;;;3.88;2.10;;;8.40;76.80;;;;;;4902134;29;20040;-86
2021/01/20 05:56:34;;;;;;;3.60;2.20;;;8.40;77.00;;;;;;4901973;29;20036;-86
2021/01/20 05:59:00;;;;;;;3.05;1.92;;;8.40;77.70;;;;;;4902406;29;20565;-86
2021/01/20 06:01:26;;;;;;;3.92;2.40;;;8.40;77.20;;;;;;4865088;29;20135;-86
2021/01/20 06:03:53;;;;;;;3.55;2.00;;;8.40;77.20;;;;;;4899614;29;20149;-86
2021/01/20 06:06:19;;;;;;;4.07;2.28;;;8.50;77.30;;;;;;4882704;29;20098;-87
2021/01/20 06:08:45;;;;;;;3.58;1.88;;;8.50;77.20;;;;;;4897635;29;20509;-85
2021/01/20 06:11:12;;;;;;;4.57;1.98;;;8.50;77.30;;;;;;4862548;29;20061;-85
2021/01/20 06:13:38;;;;;;;3.50;1.90;;;8.50;77.30;;;;;;4848475;29;20045;-86
2021/01/20 06:16:19;;;;;;;3.00;1.80;;;8.50;77.20;;;;;;4864216;29;20491;-86
2021/01/20 06:19:08;;;;;;;3.65;2.15;;;8.60;77.30;;;;;;4864089;29;20045;-86
2021/01/20 06:21:36;;;;;;;3.70;1.88;;;8.60;77.30;;;;;;4863911;29;20121;-86
2021/01/20 06:24:36;;;;;;;3.25;1.98;;;8.60;77.40;;;;;;4864304;29;20500;-86
2021/01/20 06:27:22;;;;;;;3.10;2.08;;;8.60;77.20;;;;;;4880099;29;20547;-87
2021/01/20 06:30:05;;;;;;;3.80;1.90;;;8.70;77.30;;;;;;4869457;29;20079;-85
2021/01/20 06:32:32;;;;;;;3.50;1.73;;;8.60;77.20;;;;;;4895447;29;20044;-86
2021/01/20 06:34:58;;;;;;;4.60;2.00;;;8.70;77.30;;;;;;4902311;29;20039;-86
2021/01/20 06:37:42;;;;;;;3.63;1.90;;;8.70;77.30;;;;;;4886903;29;20041;-86
2021/01/20 06:40:20;;;;;;;3.00;1.60;;;8.70;77.30;;;;;;4902228;29;20040;-86
2021/01/20 06:42:47;;;;;;;2.90;1.77;;;8.70;77.40;;;;;;4900950;29;20039;-86
2021/01/20 06:45:24;;;;;;;3.00;1.80;;;8.70;77.40;;;;;;4900703;29;20272;-86
2021/01/20 06:47:58;;;;;;;3.33;1.77;;;8.80;77.40;;;;;;4885351;29;20083;-86
2021/01/20 06:50:50;;;;;;;2.83;1.73;;;8.80;77.50;;;;;;4914090;29;20059;-91
2021/01/20 06:53:16;;;;;;;3.17;1.90;;;8.80;77.60;;;;;;4871978;29;20041;-88
2021/01/20 06:55:41;;;;;;;2.40;1.77;;;8.80;77.50;;;;;;4888121;29;20513;-90
2021/01/20 06:58:25;;;;;;;2.97;1.58;;;8.80;77.60;;;;;;4855949;29;20072;-90
2021/01/20 07:01:14;;;;;;;2.88;1.70;;;8.80;77.70;;;;;;4874722;29;20041;-89
2021/01/20 07:03:43;;;;;;;2.63;1.75;;;8.80;77.80;;;;;;4871204;29;20044;-88
2021/01/20 07:06:34;;;;;;;4.43;1.60;;;8.80;77.80;;;;;;4882069;29;20037;-88
2021/01/20 07:09:11;;;;;;;5.45;1.90;;;8.80;77.90;;;;;;4891920;29;20055;-88
2021/01/20 07:11:55;;;;;;;4.28;1.67;;;8.80;77.90;;;;;;4867638;29;20079;-88
2021/01/20 07:14:30;;;;;;;2.97;1.63;;;8.90;78.00;;;;;;4884044;29;20079;-92
2021/01/20 07:16:57;;;;;;;2.70;1.67;;;8.80;78.00;;;;;;4869009;29;20033;-91
2021/01/20 07:19:24;;;;;;;3.33;1.70;;;8.80;78.00;;;;;;4869310;29;20037;-91
2021/01/20 07:21:50;;;;;;;3.92;2.03;;;8.80;77.90;;;;;;4878670;29;20044;-93
2021/01/20 07:24:16;;;;;;;3.20;1.80;;;8.80;77.90;;;;;;4850206;29;20041;-92
2021/01/20 07:26:43;;;;;;;3.63;1.80;;;8.80;77.80;;;;;;4850337;29;20052;-89
2021/01/20 07:29:21;;;;;;;4.20;2.15;;;8.80;77.80;;;;;;4882558;29;20077;-88
2021/01/20 07:31:48;;;;;;;2.63;1.90;;;8.80;77.80;;;;;;4897323;29;20104;-89
2021/01/20 07:34:14;;;;;;;5.07;2.00;;;8.80;77.90;;;;;;4866686;29;20487;-89
2021/01/20 07:36:40;;;;;;;3.63;1.88;;;8.80;77.90;;;;;;4866632;29;20177;-88
2021/01/20 07:39:35;;;;;;;4.45;1.95;;;8.80;78.00;;;;;;4897740;29;20383;-88
2021/01/20 07:42:01;;;;;;;3.40;2.10;;;8.80;78.00;;;;;;4860946;29;20147;-88
2021/01/20 07:44:28;;;;;;;3.45;2.03;;;8.80;78.20;;;;;;4866472;29;20406;-90
2021/01/20 07:47:11;;;;;;;3.88;2.00;;;8.80;78.30;;;;;;4881522;29;20044;-90
2021/01/20 07:49:38;;;;;;;2.70;1.70;;;8.80;78.30;;;;;;4880068;29;20060;-89
2021/01/20 07:52:08;;;;;;;3.15;1.83;;;8.80;78.30;;;;;;4883741;29;20060;-90
2021/01/20 07:54:41;;;;;;;3.88;1.90;;;8.90;78.40;;;;;;4883226;29;20458;-91
2021/01/20 07:57:09;;;;;;;4.20;1.95;;;8.90;78.60;;;;;;4885100;29;20033;-94
2021/01/20 07:59:35;;;;;;;3.72;2.05;;;8.90;78.60;;;;;;4883119;29;20443;-92
2021/01/20 08:02:11;;;;;;;4.15;2.50;;;8.90;78.70;;;;;;4872567;29;20474;-93
2021/01/20 08:04:38;;;;;;;2.78;1.67;;;8.90;78.80;;;;;;4882068;29;20051;-92
2021/01/20 08:07:05;;;;;;;2.90;1.90;;;8.90;78.80;;;;;;4895462;29;20375;-92
2021/01/20 08:09:49;;;;;;;3.30;1.90;;;8.90;78.90;;;;;;4922715;23;20056;-89
2021/01/20 08:12:24;;;;;;;4.68;2.13;;;8.90;78.80;;;;;;4900362;29;20036;-88
2021/01/20 08:14:50;;;;;;;3.90;2.10;;;8.90;78.80;;;;;;4915502;29;20129;-88
2021/01/20 08:17:17;;;;;;;2.88;1.80;;;8.90;78.70;;;;;;4883034;29;20546;-87
2021/01/20 08:19:44;;;;;;;2.63;1.65;;;8.90;78.60;;;;;;4897963;29;20036;-85
2021/01/20 08:22:14;;;;;;;2.20;1.60;;;8.90;78.30;;;;;;4881250;29;20124;-85
2021/01/20 08:24:47;;;;;;;2.75;1.70;;;8.90;78.30;;;;;;4883382;29;20044;-88
2021/01/20 08:27:14;;;;;;;3.50;1.98;;;9.00;78.30;;;;;;4883923;29;20078;-88
2021/01/20 08:29:53;;;;;;;3.33;1.98;;;8.90;78.10;;;;;;4884889;29;20192;-89
2021/01/20 08:32:19;;;;;;;3.15;1.83;;;9.00;78.10;;;;;;4899527;29;20052;-87
2021/01/20 08:34:47;;;;;;;3.70;1.98;;;9.00;77.90;;;;;;4916316;29;20037;-86
2021/01/20 08:37:17;;;;;;;2.83;1.73;;;9.00;78.60;;;;;;4900479;29;20028;-88
2021/01/20 08:39:57;;;;;;;2.33;1.60;;;9.00;77.90;;;;;;4899441;29;20131;-89
2021/01/20 08:42:29;;;;;;;2.28;1.58;;;9.00;77.90;;;;;;4899956;29;20036;-88
2021/01/20 08:45:20;;;;;;;3.70;1.70;;;9.00;78.00;;;;;;4904063;29;20039;-89
2021/01/20 08:47:47;;;;;;;2.55;1.90;;;9.00;77.70;;;;;;4915915;29;20067;-91
2021/01/20 08:50:18;;;;;;;4.32;1.98;;;9.00;77.60;;;;;;4901626;29;20032;-89
2021/01/20 08:52:51;;;;;;;3.53;1.95;;;9.10;78.20;;;;;;4919634;29;20043;-87
2021/01/20 08:55:28;;;;;;;3.63;2.10;;;9.10;77.40;;;;;;4888261;29;20044;-88
2021/01/20 08:58:24;;;;;;;4.05;2.13;;;9.10;77.30;;;;;;4880718;29;20043;-88
2021/01/20 09:00:59;;;;;;;3.20;1.98;;;9.10;77.10;;;;;;4925203;29;20040;-88
2021/01/20 09:03:29;;;;;;;3.92;2.13;;;9.10;76.80;;;;;;4900281;29;20028;-90
2021/01/20 09:05:57;;;;;;;4.20;2.20;;;9.10;76.60;;;;;;4899454;29;20031;-88
2021/01/20 09:08:24;;;;;;;3.45;1.90;;;9.10;77.10;;;;;;4919558;29;20134;-89
2021/01/20 09:10:51;;;;;;;2.83;1.67;;;9.10;76.50;;;;;;4917261;29;20102;-87
2021/01/20 09:13:17;;;;;;;3.03;1.95;;;9.20;77.30;;;;;;4880081;29;20044;-88
2021/01/20 09:15:47;;;;;;;3.38;1.83;;;9.20;76.50;;;;;;4882091;29;20074;-87
2021/01/20 09:18:13;;;;;;;4.03;1.90;;;9.30;76.70;;;;;;4887809;29;20468;-87
2021/01/20 09:20:39;;;;;;;3.10;2.13;;;9.30;76.80;;;;;;4888098;29;20131;-87
2021/01/20 09:23:06;;;;;;;4.85;2.25;;;9.40;76.60;;;;;;4895672;29;20044;-91
2021/01/20 09:25:32;;;;;;;6.38;2.67;;;9.40;76.60;;;;;;4910982;29;20489;-86
2021/01/20 09:27:58;;;;;;;4.43;2.72;;;9.50;76.30;;;;;;4919179;29;20044;-87
2021/01/20 09:30:23;;;;;;;5.45;2.40;;;9.50;75.70;;;;;;4897932;29;20044;-86
2021/01/20 09:32:49;;;;;;;3.47;2.25;;;9.60;75.70;;;;;;4938559;29;20032;-87
2021/01/20 09:35:17;;;;;;;4.70;2.58;;;9.60;76.00;;;;;;4920996;29;20134;-87
2021/01/20 09:37:43;;;;;;;4.25;2.30;;;9.70;75.10;;;;;;4905507;29;20071;-88
2021/01/20 09:40:11;;;;;;;5.45;2.60;;;9.70;75.00;;;;;;4921012;29;20051;-87
2021/01/20 09:42:38;;;;;;;3.93;2.63;;;9.70;75.00;;;;;;4907338;29;20040;-88
2021/01/20 09:45:06;;;;;;;5.05;2.38;;;9.80;74.40;;;;;;4884378;29;20313;-86
2021/01/20 09:47:32;;;;;;;3.72;2.45;;;9.80;74.20;;;;;;4919011;29;20122;-87
2021/01/20 09:49:57;;;;;;;5.05;2.60;;;9.90;74.00;;;;;;4901885;29;20127;-87
2021/01/20 09:52:26;;;;;;;6.00;2.95;;;9.90;73.80;;;;;;4884240;29;20052;-86
2021/01/20 09:54:55;;;;;;;4.38;2.08;;;9.90;73.90;;;;;;4902208;29;20047;-88
2021/01/20 09:57:21;;;;;;;4.55;2.50;;;10.00;73.80;;;;;;4913939;29;20035;-87
2021/01/20 09:59:48;;;;;;;6.10;2.20;;;10.00;73.50;;;;;;4921410;29;20035;-88
2021/01/20 10:02:14;;;;;;;5.47;2.67;;;10.00;73.20;;;;;;4905002;29;20063;-86
2021/01/20 10:04:41;;;;;;;5.22;2.50;;;10.00;72.10;;;;;;4905216;29;20071;-86
2021/01/20 10:07:07;;;;;;;6.47;2.50;;;10.10;71.80;;;;;;4904766;29;20083;-86
2021/01/20 10:09:37;;;;;;;5.80;2.30;;;10.10;71.80;;;;;;4898829;29;20056;-89
2021/01/20 10:12:10;;;;;;;4.07;2.30;;;10.10;71.20;;;;;;4900689;29;20520;-87
2021/01/20 10:14:37;;;;;;;3.50;2.00;;;10.10;71.20;;;;;;4909143;29;20080;-86
2021/01/20 10:17:06;;;;;;;5.03;2.15;;;10.10;71.40;;;;;;4918134;29;20060;-89
2021/01/20 10:19:32;;;;;;;3.67;1.92;;;10.10;71.10;;;;;;4904839;29;20036;-88
2021/01/20 10:21:59;;;;;;;4.40;2.15;;;10.10;71.30;;;;;;4902124;29;20032;-88
2021/01/20 10:24:25;;;;;;;4.40;2.25;;;10.10;71.60;;;;;;4890561;29;20048;-88
2021/01/20 10:26:51;;;;;;;4.88;2.45;;;10.20;71.40;;;;;;4890718;29;20176;-87
2021/01/20 10:29:17;;;;;;;3.95;2.30;;;10.10;70.80;;;;;;4887838;29;20071;-87
2021/01/20 10:31:43;;;;;;;3.63;2.15;;;10.20;70.80;;;;;;4903332;29;20135;-87
2021/01/20 10:34:10;;;;;;;3.30;2.00;;;10.20;70.70;;;;;;4883183;29;20493;-87
2021/01/20 10:36:37;;;;;;;3.40;2.25;;;10.30;70.60;;;;;;4892920;29;20474;-86
2021/01/20 10:39:09;;;;;;;3.50;2.00;;;10.30;70.60;;;;;;4888002;29;20081;-86
2021/01/20 10:41:37;;;;;;;3.70;2.05;;;10.30;70.70;;;;;;4912378;29;20036;-87
2021/01/20 10:44:06;;;;;;;4.53;2.55;;;10.30;70.10;;;;;;4885340;29;20052;-87
2021/01/20 10:46:32;;;;;;;3.60;2.10;;;10.30;70.10;;;;;;4860198;29;20040;-87
2021/01/20 10:49:00;;;;;;;6.50;2.42;;;10.40;69.90;;;;;;4899809;29;20036;-86
2021/01/20 10:51:28;;;;;;;3.43;2.10;;;10.40;70.30;;;;;;4908342;29;20055;-89
2021/01/20 10:53:54;;;;;;;4.15;2.38;;;10.40;69.60;;;;;;4867638;29;20295;-88
2021/01/20 10:56:20;;;;;;;3.70;2.33;;;10.40;69.10;;;;;;4867053;29;20036;-89
2021/01/20 10:58:46;;;;;;;4.95;2.15;;;10.40;69.90;;;;;;4868409;29;20483;-88
2021/01/20 11:01:11;;;;;;;5.80;2.60;;;10.50;69.30;;;;;;4900651;29;20044;-88
2021/01/20 11:03:40;;;;;;;4.05;2.50;;;10.50;69.30;;;;;;4902543;29;20602;-89
2021/01/20 11:06:09;;;;;;;3.88;2.50;;;10.50;69.10;;;;;;4894184;29;20068;-88
2021/01/20 11:08:35;;;;;;;4.50;2.60;;;10.50;68.80;;;;;;4885664;29;20044;-89
2021/01/20 11:11:01;;;;;;;3.95;2.10;;;10.50;68.00;;;;;;4871152;29;20055;-89
2021/01/20 11:13:27;;;;;;;4.35;2.63;;;10.50;68.00;;;;;;4901093;29;20052;-86
2021/01/20 11:15:54;;;;;;;4.65;2.33;;;10.50;67.80;;;;;;4884359;29;20067;-88
2021/01/20 11:18:19;;;;;;;3.70;2.22;;;10.50;68.30;;;;;;4869134;29;20459;-88
2021/01/20 11:20:47;;;;;;;4.72;2.40;;;10.60;68.40;;;;;;4900121;29;20143;-88
2021/01/20 11:23:14;;;;;;;5.15;2.30;;;10.60;68.20;;;;;;4900434;29;20151;-88
2021/01/20 11:25:46;;;;;;;5.18;2.50;;;10.60;67.60;;;;;;4896271;29;20029;-87
2021/01/20 11:28:13;;;;;;;4.55;2.22;;;10.60;67.60;;;;;;4876871;29;20049;-88
2021/01/20 11:30:39;;;;;;;4.00;2.20;;;10.60;67.50;;;;;;4867677;29;20058;-88
2021/01/20 11:33:05;;;;;;;3.55;2.20;;;10.60;67.60;;;;;;4867160;29;20411;-87
2021/01/20 11:35:31;;;;;;;3.53;2.10;;;10.60;67.10;;;;;;4898848;29;20032;-88
2021/01/20 11:37:57;;;;;;;4.10;2.33;;;10.60;68.00;;;;;;4901146;29;20046;-91
2021/01/20 11:40:26;;;;;;;4.05;2.40;;;10.60;67.60;;;;;;4886024;29;20439;-91
2021/01/20 11:42:57;;;;;;;4.93;1.92;;;10.70;67.30;;;;;;4899590;29;20123;-91
2021/01/20 11:45:29;;;;;;;3.58;2.35;;;10.70;66.80;;;;;;4901606;29;20036;-89
2021/01/20 11:47:55;;;;;;;5.95;2.38;;;10.70;67.10;;;;;;4901922;29;20032;-91
2021/01/20 11:50:22;;;;;;;4.07;2.22;;;10.70;67.20;;;;;;4886037;29;20062;-90
2021/01/20 11:52:49;;;;;;;4.45;2.20;;;10.70;66.30;;;;;;4886182;29;20502;-90
2021/01/20 11:55:15;;;;;;;4.38;2.20;;;10.70;66.90;;;;;;4918117;29;20478;-90
2021/01/20 11:57:41;;;;;;;3.88;2.08;;;10.80;67.50;;;;;;4885999;29;20039;-90
2021/01/20 12:00:08;;;;;;;3.38;1.90;;;10.80;67.60;;;;;;4901527;29;20442;-92
2021/01/20 12:02:34;;;;;;;3.45;1.90;;;10.80;67.40;;;;;;4901608;29;20099;-90
2021/01/20 12:05:00;;;;;;;3.08;1.90;;;10.80;67.00;;;;;;4870415;29;20048;-92
2021/01/20 12:07:26;;;;;;;4.90;2.30;;;10.90;67.20;;;;;;4870058;29;20126;-91
2021/01/20 12:09:52;;;;;;;4.22;2.40;;;10.90;66.70;;;;;;4918089;29;20043;-91
2021/01/20 12:12:17;;;;;;;4.68;2.13;;;10.90;66.00;;;;;;4882216;29;20127;-91
2021/01/20 12:14:43;;;;;;;4.65;2.35;;;10.90;66.10;;;;;;4885473;29;20072;-90
2021/01/20 12:17:09;;;;;;;5.00;2.08;;;11.00;65.70;;;;;;4885760;29;20036;-90
2021/01/20 12:19:34;;;;;;;2.95;2.10;;;11.00;65.30;;;;;;4884525;29;20047;-90
2021/01/20 12:22:00;;;;;;;4.38;2.20;;;11.00;65.50;;;;;;4885373;29;20028;-90
2021/01/20 12:24:25;;;;;;;4.32;2.28;;;11.00;65.70;;;;;;4869248;29;20046;-91
2021/01/20 12:26:54;;;;;;;4.13;1.80;;;11.00;66.10;;;;;;4869662;29;20407;-90
2021/01/20 12:29:19;;;;;;;3.43;2.10;;;11.00;65.90;;;;;;4889875;29;20047;-91
2021/01/20 12:31:45;;;;;;;2.85;1.90;;;11.10;66.10;;;;;;4870481;29;20098;-91
2021/01/20 12:34:10;;;;;;;4.60;2.03;;;11.10;65.90;;;;;;4883150;29;20067;-91
2021/01/20 12:36:36;;;;;;;3.75;2.22;;;11.10;65.90;;;;;;4881567;29;20155;-90
2021/01/20 12:39:03;;;;;;;5.50;2.30;;;11.10;66.10;;;;;;4870386;29;20049;-88
2021/01/20 12:41:28;;;;;;;3.95;1.90;;;11.10;65.50;;;;;;4898151;29;20120;-88
2021/01/20 12:43:54;;;;;;;4.25;1.98;;;11.10;64.10;;;;;;4897358;29;20124;-88
2021/01/20 12:46:20;;;;;;;9.07;2.85;;;11.10;65.20;;;;;;4882773;29;20491;-87
2021/01/20 12:48:45;;;;;;;4.00;1.95;;;11.10;65.10;;;;;;4916821;29;20043;-90
2021/01/20 12:51:11;;;;;;;5.70;2.15;;;11.10;65.30;;;;;;4869786;29;20152;-88
2021/01/20 12:53:36;;;;;;;2.78;2.10;;;11.20;65.80;;;;;;4883256;29;20458;-89
2021/01/20 12:56:02;;;;;;;3.67;2.00;;;11.20;66.00;;;;;;4869532;29;20043;-89
2021/01/20 12:58:27;;;;;;;5.53;2.28;;;11.20;65.70;;;;;;4874054;29;20076;-89
2021/01/20 13:00:53;;;;;;;2.80;1.70;;;11.20;65.50;;;;;;4884546;29;20087;-89
2021/01/20 13:03:19;;;;;;;4.05;2.20;;;11.30;65.70;;;;;;4900364;29;20032;-88
2021/01/20 13:05:44;;;;;;;4.78;2.28;;;11.30;65.80;;;;;;4884568;29;20491;-88